sensor_id;sensor_type;location;lat;lon;timestamp;temperature;humidity
15257;DHT22;7731;50.720;6.912;2022-11-15T00:02:19;11.40;99.90
15257;DHT22;7731;50.720;6.912;2022-11-15T00:04:55;11.40;99.90
15257;DHT22;7731;50.720;6.912;2022-11-15T00:07:34;11.40;99.90
15257;DHT22;7731;50.720;6.912;2022-11-15T00:10:24;11.50;99.90
15257;DHT22;7731;50.720;6.912;2022-11-15T00:12:54;11.60;99.90
15257;DHT22;7731;50.720;6.912;2022-11-15T00:15:24;11.60;99.90
15257;DHT22;7731;50.720;6.912;2022-11-15T00:17:54;11.50;99.90
15257;DHT22;7731;50.720;6.912;2022-11-15T00:20:30;11.40;99.90
15257;DHT22;7731;50.720;6.912;2022-11-15T00:23:05;11.40;99.90
15257;DHT22;7731;50.720;6.912;2022-11-15T00:25:38;11.50;99.90
15257;DHT22;7731;50.720;6.912;2022-11-15T00:28:08;11.50;99.90
15257;DHT22;7731;50.720;6.912;2022-11-15T00:30:41;11.50;99.90
15257;DHT22;7731;50.720;6.912;2022-11-15T00:33:11;11.50;99.90
15257;DHT22;7731;50.720;6.912;2022-11-15T00:35:47;11.50;99.90
15257;DHT22;7731;50.720;6.912;2022-11-15T00:38:22;11.50;99.90
15257;DHT22;7731;50.720;6.912;2022-11-15T00:40:58;11.50;99.90
15257;DHT22;7731;50.720;6.912;2022-11-15T00:43:36;11.50;99.90
15257;DHT22;7731;50.720;6.912;2022-11-15T00:46:07;11.50;99.90
15257;DHT22;7731;50.720;6.912;2022-11-15T00:48:37;11.40;99.90
15257;DHT22;7731;50.720;6.912;2022-11-15T00:51:07;11.40;99.90
15257;DHT22;7731;50.720;6.912;2022-11-15T00:53:42;11.30;99.90
15257;DHT22;7731;50.720;6.912;2022-11-15T00:56:15;11.30;99.90
15257;DHT22;7731;50.720;6.912;2022-11-15T00:58:48;11.30;99.90
15257;DHT22;7731;50.720;6.912;2022-11-15T01:01:18;11.40;99.90
15257;DHT22;7731;50.720;6.912;2022-11-15T01:03:51;11.40;99.90
15257;DHT22;7731;50.720;6.912;2022-11-15T01:06:30;11.50;99.90
15257;DHT22;7731;50.720;6.912;2022-11-15T01:09:03;11.40;99.90
15257;DHT22;7731;50.720;6.912;2022-11-15T01:11:39;11.40;99.90
15257;DHT22;7731;50.720;6.912;2022-11-15T01:14:09;11.40;99.90
15257;DHT22;7731;50.720;6.912;2022-11-15T01:16:39;11.30;99.90
15257;DHT22;7731;50.720;6.912;2022-11-15T01:19:12;11.30;99.90
15257;DHT22;7731;50.720;6.912;2022-11-15T01:21:42;11.30;99.90
15257;DHT22;7731;50.720;6.912;2022-11-15T01:24:15;11.40;99.90
15257;DHT22;7731;50.720;6.912;2022-11-15T01:26:45;11.40;99.90
15257;DHT22;7731;50.720;6.912;2022-11-15T01:29:15;11.40;99.90
15257;DHT22;7731;50.720;6.912;2022-11-15T01:31:45;11.40;99.90
15257;DHT22;7731;50.720;6.912;2022-11-15T01:34:15;11.40;99.90
15257;DHT22;7731;50.720;6.912;2022-11-15T01:36:49;11.40;99.90
15257;DHT22;7731;50.720;6.912;2022-11-15T01:39:21;11.40;99.90
15257;DHT22;7731;50.720;6.912;2022-11-15T01:41:52;11.40;99.90
15257;DHT22;7731;50.720;6.912;2022-11-15T01:44:43;11.40;99.90
15257;DHT22;7731;50.720;6.912;2022-11-15T01:47:18;11.40;99.90
15257;DHT22;7731;50.720;6.912;2022-11-15T01:49:57;11.30;99.90
15257;DHT22;7731;50.720;6.912;2022-11-15T01:52:31;11.30;99.90
15257;DHT22;7731;50.720;6.912;2022-11-15T01:55:09;11.30;99.90
15257;DHT22;7731;50.720;6.912;2022-11-15T01:57:47;11.30;99.90
15257;DHT22;7731;50.720;6.912;2022-11-15T02:00:20;11.30;99.90
15257;DHT22;7731;50.720;6.912;2022-11-15T02:02:56;11.20;99.90
15257;DHT22;7731;50.720;6.912;2022-11-15T02:05:26;11.20;99.90
15257;DHT22;7731;50.720;6.912;2022-11-15T02:07:56;11.30;99.90
15257;DHT22;7731;50.720;6.912;2022-11-15T02:10:32;11.30;99.90
15257;DHT22;7731;50.720;6.912;2022-11-15T02:13:11;11.40;99.90
15257;DHT22;7731;50.720;6.912;2022-11-15T02:15:58;11.50;99.90
15257;DHT22;7731;50.720;6.912;2022-11-15T02:18:39;11.60;99.90
15257;DHT22;7731;50.720;6.912;2022-11-15T02:21:21;11.70;99.90
15257;DHT22;7731;50.720;6.912;2022-11-15T02:30:59;11.80;99.90
15257;DHT22;7731;50.720;6.912;2022-11-15T02:33:41;11.90;99.90
15257;DHT22;7731;50.720;6.912;2022-11-15T02:36:30;11.90;99.90
15257;DHT22;7731;50.720;6.912;2022-11-15T02:39:10;12.00;99.90
15257;DHT22;7731;50.720;6.912;2022-11-15T02:41:53;12.00;99.90
15257;DHT22;7731;50.720;6.912;2022-11-15T02:44:32;12.00;99.90
15257;DHT22;7731;50.720;6.912;2022-11-15T02:47:08;12.00;99.90
15257;DHT22;7731;50.720;6.912;2022-11-15T02:49:50;12.00;99.90
15257;DHT22;7731;50.720;6.912;2022-11-15T02:52:24;12.00;99.90
15257;DHT22;7731;50.720;6.912;2022-11-15T02:54:57;12.00;99.90
15257;DHT22;7731;50.720;6.912;2022-11-15T02:57:38;12.10;99.90
15257;DHT22;7731;50.720;6.912;2022-11-15T03:00:18;12.10;99.90
15257;DHT22;7731;50.720;6.912;2022-11-15T03:03:20;12.10;99.90
15257;DHT22;7731;50.720;6.912;2022-11-15T03:06:13;12.00;99.90
15257;DHT22;7731;50.720;6.912;2022-11-15T03:09:01;12.00;99.90
15257;DHT22;7731;50.720;6.912;2022-11-15T03:11:37;12.20;99.90
15257;DHT22;7731;50.720;6.912;2022-11-15T03:14:20;12.20;99.90
15257;DHT22;7731;50.720;6.912;2022-11-15T03:17:04;12.20;99.90
15257;DHT22;7731;50.720;6.912;2022-11-15T03:19:47;12.10;99.90
15257;DHT22;7731;50.720;6.912;2022-11-15T03:22:22;12.20;99.90
15257;DHT22;7731;50.720;6.912;2022-11-15T03:24:58;12.20;99.90
15257;DHT22;7731;50.720;6.912;2022-11-15T03:27:36;12.20;99.90
15257;DHT22;7731;50.720;6.912;2022-11-15T03:30:11;12.20;99.90
15257;DHT22;7731;50.720;6.912;2022-11-15T03:32:45;12.20;99.90
15257;DHT22;7731;50.720;6.912;2022-11-15T03:35:28;12.20;99.90
15257;DHT22;7731;50.720;6.912;2022-11-15T03:38:08;12.20;99.90
15257;DHT22;7731;50.720;6.912;2022-11-15T03:40:44;12.30;99.90
15257;DHT22;7731;50.720;6.912;2022-11-15T03:43:24;12.40;99.90
15257;DHT22;7731;50.720;6.912;2022-11-15T03:46:06;12.40;99.90
15257;DHT22;7731;50.720;6.912;2022-11-15T03:48:48;12.30;99.90
15257;DHT22;7731;50.720;6.912;2022-11-15T03:51:32;12.30;99.90
15257;DHT22;7731;50.720;6.912;2022-11-15T03:54:03;12.30;99.90
15257;DHT22;7731;50.720;6.912;2022-11-15T03:56:42;12.30;99.90
15257;DHT22;7731;50.720;6.912;2022-11-15T03:59:13;12.30;99.90
15257;DHT22;7731;50.720;6.912;2022-11-15T04:01:43;12.30;99.90
15257;DHT22;7731;50.720;6.912;2022-11-15T04:04:13;12.30;99.90
15257;DHT22;7731;50.720;6.912;2022-11-15T04:06:49;12.30;99.90
15257;DHT22;7731;50.720;6.912;2022-11-15T04:09:22;12.20;99.90
15257;DHT22;7731;50.720;6.912;2022-11-15T04:11:55;12.10;99.90
15257;DHT22;7731;50.720;6.912;2022-11-15T04:14:25;12.10;99.90
15257;DHT22;7731;50.720;6.912;2022-11-15T04:16:55;12.20;99.90
15257;DHT22;7731;50.720;6.912;2022-11-15T04:19:25;12.20;99.90
15257;DHT22;7731;50.720;6.912;2022-11-15T04:22:12;12.20;99.90
15257;DHT22;7731;50.720;6.912;2022-11-15T04:24:55;12.10;99.90
15257;DHT22;7731;50.720;6.912;2022-11-15T04:27:28;12.10;99.90
15257;DHT22;7731;50.720;6.912;2022-11-15T04:29:58;12.00;99.90
15257;DHT22;7731;50.720;6.912;2022-11-15T04:32:31;12.00;99.90
15257;DHT22;7731;50.720;6.912;2022-11-15T04:35:01;11.90;99.90
15257;DHT22;7731;50.720;6.912;2022-11-15T04:37:33;11.90;99.90
15257;DHT22;7731;50.720;6.912;2022-11-15T04:40:08;11.80;99.90
15257;DHT22;7731;50.720;6.912;2022-11-15T04:42:40;11.80;99.90
15257;DHT22;7731;50.720;6.912;2022-11-15T04:45:11;11.70;99.90
15257;DHT22;7731;50.720;6.912;2022-11-15T04:47:44;11.70;99.90
15257;DHT22;7731;50.720;6.912;2022-11-15T04:50:15;11.80;99.90
15257;DHT22;7731;50.720;6.912;2022-11-15T04:52:53;11.90;99.90
15257;DHT22;7731;50.720;6.912;2022-11-15T04:55:26;11.90;99.90
15257;DHT22;7731;50.720;6.912;2022-11-15T04:58:10;12.00;99.90
15257;DHT22;7731;50.720;6.912;2022-11-15T05:00:41;12.00;99.90
15257;DHT22;7731;50.720;6.912;2022-11-15T05:03:13;12.00;99.90
15257;DHT22;7731;50.720;6.912;2022-11-15T05:05:57;12.10;99.90
15257;DHT22;7731;50.720;6.912;2022-11-15T05:08:35;12.00;99.90
15257;DHT22;7731;50.720;6.912;2022-11-15T05:11:10;11.80;99.90
15257;DHT22;7731;50.720;6.912;2022-11-15T05:13:40;11.70;99.90
15257;DHT22;7731;50.720;6.912;2022-11-15T05:16:13;11.60;99.90
15257;DHT22;7731;50.720;6.912;2022-11-15T05:18:44;11.50;99.90
15257;DHT22;7731;50.720;6.912;2022-11-15T05:21:15;11.50;99.90
15257;DHT22;7731;50.720;6.912;2022-11-15T05:23:47;11.40;99.90
15257;DHT22;7731;50.720;6.912;2022-11-15T05:26:25;11.30;99.90
15257;DHT22;7731;50.720;6.912;2022-11-15T05:28:57;11.30;99.90
15257;DHT22;7731;50.720;6.912;2022-11-15T05:31:28;11.30;99.90
15257;DHT22;7731;50.720;6.912;2022-11-15T05:34:04;11.10;99.90
15257;DHT22;7731;50.720;6.912;2022-11-15T05:36:40;11.10;99.90
15257;DHT22;7731;50.720;6.912;2022-11-15T05:39:29;11.10;99.90
15257;DHT22;7731;50.720;6.912;2022-11-15T05:42:01;11.10;99.90
15257;DHT22;7731;50.720;6.912;2022-11-15T05:44:37;11.10;99.90
15257;DHT22;7731;50.720;6.912;2022-11-15T05:47:13;11.00;99.90
15257;DHT22;7731;50.720;6.912;2022-11-15T05:49:47;11.00;99.90
15257;DHT22;7731;50.720;6.912;2022-11-15T05:52:21;11.00;99.90
15257;DHT22;7731;50.720;6.912;2022-11-15T05:54:58;11.00;99.90
15257;DHT22;7731;50.720;6.912;2022-11-15T05:57:28;11.00;99.90
15257;DHT22;7731;50.720;6.912;2022-11-15T05:59:59;10.90;99.90
15257;DHT22;7731;50.720;6.912;2022-11-15T06:02:29;10.90;99.90
15257;DHT22;7731;50.720;6.912;2022-11-15T06:04:59;10.80;99.90
15257;DHT22;7731;50.720;6.912;2022-11-15T06:07:30;10.70;99.90
15257;DHT22;7731;50.720;6.912;2022-11-15T06:10:03;10.50;99.90
15257;DHT22;7731;50.720;6.912;2022-11-15T06:12:34;10.40;99.90
15257;DHT22;7731;50.720;6.912;2022-11-15T06:15:10;10.30;99.90
15257;DHT22;7731;50.720;6.912;2022-11-15T06:17:40;10.30;99.90
15257;DHT22;7731;50.720;6.912;2022-11-15T06:20:11;10.30;99.90
15257;DHT22;7731;50.720;6.912;2022-11-15T06:22:41;10.40;99.90
15257;DHT22;7731;50.720;6.912;2022-11-15T06:25:14;10.50;99.90
15257;DHT22;7731;50.720;6.912;2022-11-15T06:27:51;10.40;99.90
15257;DHT22;7731;50.720;6.912;2022-11-15T06:30:22;10.40;99.90
15257;DHT22;7731;50.720;6.912;2022-11-15T06:32:59;10.30;99.90
15257;DHT22;7731;50.720;6.912;2022-11-15T06:35:34;10.40;99.90
15257;DHT22;7731;50.720;6.912;2022-11-15T06:38:06;10.40;99.90
15257;DHT22;7731;50.720;6.912;2022-11-15T06:40:42;10.40;99.90
15257;DHT22;7731;50.720;6.912;2022-11-15T06:43:13;10.40;99.90
15257;DHT22;7731;50.720;6.912;2022-11-15T06:45:43;10.40;99.90
15257;DHT22;7731;50.720;6.912;2022-11-15T06:48:16;10.50;99.90
15257;DHT22;7731;50.720;6.912;2022-11-15T06:50:50;10.50;99.90
15257;DHT22;7731;50.720;6.912;2022-11-15T06:53:21;10.50;99.90
15257;DHT22;7731;50.720;6.912;2022-11-15T06:55:58;10.50;99.90
15257;DHT22;7731;50.720;6.912;2022-11-15T06:58:32;10.50;99.90
15257;DHT22;7731;50.720;6.912;2022-11-15T07:01:05;10.50;99.90
15257;DHT22;7731;50.720;6.912;2022-11-15T07:03:40;10.50;99.90
15257;DHT22;7731;50.720;6.912;2022-11-15T07:06:12;10.50;99.90
15257;DHT22;7731;50.720;6.912;2022-11-15T07:08:43;10.60;99.90
15257;DHT22;7731;50.720;6.912;2022-11-15T07:11:15;10.60;99.90
15257;DHT22;7731;50.720;6.912;2022-11-15T07:13:46;10.60;99.90
15257;DHT22;7731;50.720;6.912;2022-11-15T07:16:16;10.70;99.90
15257;DHT22;7731;50.720;6.912;2022-11-15T07:18:46;10.60;99.90
15257;DHT22;7731;50.720;6.912;2022-11-15T07:21:16;10.60;99.90
15257;DHT22;7731;50.720;6.912;2022-11-15T07:23:53;10.60;99.90
15257;DHT22;7731;50.720;6.912;2022-11-15T07:26:26;10.60;99.90
15257;DHT22;7731;50.720;6.912;2022-11-15T07:28:56;10.80;99.90
15257;DHT22;7731;50.720;6.912;2022-11-15T07:31:26;10.80;99.90
15257;DHT22;7731;50.720;6.912;2022-11-15T07:33:56;10.80;99.90
15257;DHT22;7731;50.720;6.912;2022-11-15T07:36:26;10.80;99.90
15257;DHT22;7731;50.720;6.912;2022-11-15T07:38:59;10.90;99.90
15257;DHT22;7731;50.720;6.912;2022-11-15T07:41:32;11.00;99.90
15257;DHT22;7731;50.720;6.912;2022-11-15T07:44:05;11.10;99.90
15257;DHT22;7731;50.720;6.912;2022-11-15T07:46:37;11.20;99.90
15257;DHT22;7731;50.720;6.912;2022-11-15T07:49:11;11.30;99.90
15257;DHT22;7731;50.720;6.912;2022-11-15T07:51:41;11.40;99.90
15257;DHT22;7731;50.720;6.912;2022-11-15T07:54:11;11.50;99.90
15257;DHT22;7731;50.720;6.912;2022-11-15T07:56:46;11.60;99.90
15257;DHT22;7731;50.720;6.912;2022-11-15T07:59:16;11.70;99.90
15257;DHT22;7731;50.720;6.912;2022-11-15T08:01:46;11.80;99.90
15257;DHT22;7731;50.720;6.912;2022-11-15T08:04:27;12.00;99.90
15257;DHT22;7731;50.720;6.912;2022-11-15T08:06:57;12.30;99.90
15257;DHT22;7731;50.720;6.912;2022-11-15T08:09:28;12.40;99.90
15257;DHT22;7731;50.720;6.912;2022-11-15T08:12:03;12.50;99.90
15257;DHT22;7731;50.720;6.912;2022-11-15T08:14:34;12.60;99.90
15257;DHT22;7731;50.720;6.912;2022-11-15T08:17:05;12.70;99.90
15257;DHT22;7731;50.720;6.912;2022-11-15T08:19:36;12.80;99.90
15257;DHT22;7731;50.720;6.912;2022-11-15T08:22:06;13.00;99.90
15257;DHT22;7731;50.720;6.912;2022-11-15T08:24:44;13.30;99.90
15257;DHT22;7731;50.720;6.912;2022-11-15T08:27:17;13.40;99.90
15257;DHT22;7731;50.720;6.912;2022-11-15T08:29:50;13.60;99.90
15257;DHT22;7731;50.720;6.912;2022-11-15T08:32:25;13.80;99.90
15257;DHT22;7731;50.720;6.912;2022-11-15T08:34:58;14.00;99.90
15257;DHT22;7731;50.720;6.912;2022-11-15T08:37:28;14.10;99.90
15257;DHT22;7731;50.720;6.912;2022-11-15T08:40:05;14.20;99.90
15257;DHT22;7731;50.720;6.912;2022-11-15T08:42:39;14.50;99.90
15257;DHT22;7731;50.720;6.912;2022-11-15T08:45:13;14.90;99.90
15257;DHT22;7731;50.720;6.912;2022-11-15T08:47:43;15.40;91.10
15257;DHT22;7731;50.720;6.912;2022-11-15T08:50:20;15.60;69.90
15257;DHT22;7731;50.720;6.912;2022-11-15T08:52:50;15.80;52.10
15257;DHT22;7731;50.720;6.912;2022-11-15T08:55:20;16.20;31.80
15257;DHT22;7731;50.720;6.912;2022-11-15T08:57:53;16.50;20.50
15257;DHT22;7731;50.720;6.912;2022-11-15T09:00:29;16.70;11.30
15257;DHT22;7731;50.720;6.912;2022-11-15T09:03:06;16.60;1.00
15257;DHT22;7731;50.720;6.912;2022-11-15T09:05:42;16.30;8.90
15257;DHT22;7731;50.720;6.912;2022-11-15T09:08:12;16.00;8.00
15257;DHT22;7731;50.720;6.912;2022-11-15T09:11:03;16.00;12.30
15257;DHT22;7731;50.720;6.912;2022-11-15T09:13:36;16.80;1.00
15257;DHT22;7731;50.720;6.912;2022-11-15T09:16:10;17.20;1.00
15257;DHT22;7731;50.720;6.912;2022-11-15T09:18:42;17.90;1.00
15257;DHT22;7731;50.720;6.912;2022-11-15T09:21:15;18.70;1.00
15257;DHT22;7731;50.720;6.912;2022-11-15T09:23:50;19.00;1.00
15257;DHT22;7731;50.720;6.912;2022-11-15T09:26:20;19.10;99.90
15257;DHT22;7731;50.720;6.912;2022-11-15T09:28:53;18.50;1.00
15257;DHT22;7731;50.720;6.912;2022-11-15T09:31:23;18.20;1.00
15257;DHT22;7731;50.720;6.912;2022-11-15T09:34:02;17.70;1.00
15257;DHT22;7731;50.720;6.912;2022-11-15T09:36:35;17.40;1.00
15257;DHT22;7731;50.720;6.912;2022-11-15T09:39:05;17.90;1.00
15257;DHT22;7731;50.720;6.912;2022-11-15T09:41:58;18.30;1.00
15257;DHT22;7731;50.720;6.912;2022-11-15T09:45:10;18.40;1.00
15257;DHT22;7731;50.720;6.912;2022-11-15T09:48:10;18.40;1.00
15257;DHT22;7731;50.720;6.912;2022-11-15T09:50:55;18.30;1.00
15257;DHT22;7731;50.720;6.912;2022-11-15T09:53:34;18.40;1.00
15257;DHT22;7731;50.720;6.912;2022-11-15T09:56:39;18.50;1.00
15257;DHT22;7731;50.720;6.912;2022-11-15T09:59:27;19.10;1.00
15257;DHT22;7731;50.720;6.912;2022-11-15T10:02:19;18.70;99.90
15257;DHT22;7731;50.720;6.912;2022-11-15T10:05:07;19.30;1.00
15257;DHT22;7731;50.720;6.912;2022-11-15T10:07:55;19.40;99.90
15257;DHT22;7731;50.720;6.912;2022-11-15T10:10:38;19.50;1.00
15257;DHT22;7731;50.720;6.912;2022-11-15T10:13:15;19.40;1.00
15257;DHT22;7731;50.720;6.912;2022-11-15T10:15:51;19.20;1.00
15257;DHT22;7731;50.720;6.912;2022-11-15T10:18:28;20.00;1.00
15257;DHT22;7731;50.720;6.912;2022-11-15T10:21:14;20.00;1.00
15257;DHT22;7731;50.720;6.912;2022-11-15T10:23:47;20.20;99.90
15257;DHT22;7731;50.720;6.912;2022-11-15T10:26:21;20.30;1.00
15257;DHT22;7731;50.720;6.912;2022-11-15T10:28:53;20.10;99.90
15257;DHT22;7731;50.720;6.912;2022-11-15T10:31:25;20.50;99.90
15257;DHT22;7731;50.720;6.912;2022-11-15T10:34:12;20.50;99.90
15257;DHT22;7731;50.720;6.912;2022-11-15T10:36:44;20.30;99.90
15257;DHT22;7731;50.720;6.912;2022-11-15T10:39:16;19.90;1.00
15257;DHT22;7731;50.720;6.912;2022-11-15T10:41:46;19.60;99.90
15257;DHT22;7731;50.720;6.912;2022-11-15T10:44:25;19.00;1.00
15257;DHT22;7731;50.720;6.912;2022-11-15T10:47:27;18.90;46.30
15257;DHT22;7731;50.720;6.912;2022-11-15T10:50:28;18.40;99.90
15257;DHT22;7731;50.720;6.912;2022-11-15T10:53:01;17.70;99.90
15257;DHT22;7731;50.720;6.912;2022-11-15T10:55:32;17.40;99.90
15257;DHT22;7731;50.720;6.912;2022-11-15T10:58:09;17.00;1.00
15257;DHT22;7731;50.720;6.912;2022-11-15T11:00:52;16.60;1.00
15257;DHT22;7731;50.720;6.912;2022-11-15T11:03:34;16.00;1.00
15257;DHT22;7731;50.720;6.912;2022-11-15T11:06:13;15.50;1.00
15257;DHT22;7731;50.720;6.912;2022-11-15T11:08:55;15.20;1.00
15257;DHT22;7731;50.720;6.912;2022-11-15T11:11:44;15.00;1.00
15257;DHT22;7731;50.720;6.912;2022-11-15T11:14:21;14.50;1.00
15257;DHT22;7731;50.720;6.912;2022-11-15T11:16:56;14.40;1.00
15257;DHT22;7731;50.720;6.912;2022-11-15T11:19:53;14.40;1.00
15257;DHT22;7731;50.720;6.912;2022-11-15T11:22:41;14.40;1.00
15257;DHT22;7731;50.720;6.912;2022-11-15T11:25:32;14.50;1.00
15257;DHT22;7731;50.720;6.912;2022-11-15T11:28:15;14.80;1.00
15257;DHT22;7731;50.720;6.912;2022-11-15T11:31:04;15.10;1.00
15257;DHT22;7731;50.720;6.912;2022-11-15T11:33:47;15.10;1.00
15257;DHT22;7731;50.720;6.912;2022-11-15T11:36:32;15.20;1.00
15257;DHT22;7731;50.720;6.912;2022-11-15T11:39:34;15.20;1.00
15257;DHT22;7731;50.720;6.912;2022-11-15T11:42:17;15.30;1.00
15257;DHT22;7731;50.720;6.912;2022-11-15T11:45:10;15.20;1.00
15257;DHT22;7731;50.720;6.912;2022-11-15T11:47:52;15.00;1.00
15257;DHT22;7731;50.720;6.912;2022-11-15T11:50:44;15.10;1.00
15257;DHT22;7731;50.720;6.912;2022-11-15T11:53:27;15.20;1.00
15257;DHT22;7731;50.720;6.912;2022-11-15T11:56:11;15.20;1.00
15257;DHT22;7731;50.720;6.912;2022-11-15T11:58:48;15.40;1.00
15257;DHT22;7731;50.720;6.912;2022-11-15T12:01:24;15.50;1.00
15257;DHT22;7731;50.720;6.912;2022-11-15T12:04:04;15.50;1.00
15257;DHT22;7731;50.720;6.912;2022-11-15T12:06:45;15.40;1.00
15257;DHT22;7731;50.720;6.912;2022-11-15T12:09:29;15.20;1.00
15257;DHT22;7731;50.720;6.912;2022-11-15T12:12:15;15.00;1.00
15257;DHT22;7731;50.720;6.912;2022-11-15T12:14:54;14.80;1.00
15257;DHT22;7731;50.720;6.912;2022-11-15T12:17:29;14.70;1.00
15257;DHT22;7731;50.720;6.912;2022-11-15T12:20:12;14.60;1.00
15257;DHT22;7731;50.720;6.912;2022-11-15T12:22:52;14.70;7.30
15257;DHT22;7731;50.720;6.912;2022-11-15T12:25:29;14.70;12.40
15257;DHT22;7731;50.720;6.912;2022-11-15T12:28:14;14.90;2.50
15257;DHT22;7731;50.720;6.912;2022-11-15T12:30:55;14.90;6.30
15257;DHT22;7731;50.720;6.912;2022-11-15T12:33:38;15.00;1.00
15257;DHT22;7731;50.720;6.912;2022-11-15T12:36:12;15.00;4.10
15257;DHT22;7731;50.720;6.912;2022-11-15T12:39:06;15.00;1.00
15257;DHT22;7731;50.720;6.912;2022-11-15T12:41:38;15.00;1.00
15257;DHT22;7731;50.720;6.912;2022-11-15T12:44:56;14.90;1.30
15257;DHT22;7731;50.720;6.912;2022-11-15T12:47:31;14.80;10.80
15257;DHT22;7731;50.720;6.912;2022-11-15T12:50:01;14.80;3.40
15257;DHT22;7731;50.720;6.912;2022-11-15T12:52:31;14.80;5.50
15257;DHT22;7731;50.720;6.912;2022-11-15T12:55:30;14.80;6.20
15257;DHT22;7731;50.720;6.912;2022-11-15T12:58:27;14.80;16.00
15257;DHT22;7731;50.720;6.912;2022-11-15T13:01:14;14.90;17.90
15257;DHT22;7731;50.720;6.912;2022-11-15T13:04:23;15.00;21.20
15257;DHT22;7731;50.720;6.912;2022-11-15T13:06:57;14.90;23.10
15257;DHT22;7731;50.720;6.912;2022-11-15T13:12:58;14.80;33.10
15257;DHT22;7731;50.720;6.912;2022-11-15T13:15:54;14.90;28.00
15257;DHT22;7731;50.720;6.912;2022-11-15T13:18:43;14.90;27.70
15257;DHT22;7731;50.720;6.912;2022-11-15T13:21:24;14.80;35.10
15257;DHT22;7731;50.720;6.912;2022-11-15T13:24:15;14.70;37.30
15257;DHT22;7731;50.720;6.912;2022-11-15T13:26:46;14.70;50.80
15257;DHT22;7731;50.720;6.912;2022-11-15T13:29:18;14.90;33.10
15257;DHT22;7731;50.720;6.912;2022-11-15T13:31:49;14.80;43.30
15257;DHT22;7731;50.720;6.912;2022-11-15T13:34:29;14.80;52.60
15257;DHT22;7731;50.720;6.912;2022-11-15T13:37:30;14.80;50.40
15257;DHT22;7731;50.720;6.912;2022-11-15T13:40:21;14.80;57.20
15257;DHT22;7731;50.720;6.912;2022-11-15T13:42:54;14.70;75.20
15257;DHT22;7731;50.720;6.912;2022-11-15T13:45:25;14.60;97.00
15257;DHT22;7731;50.720;6.912;2022-11-15T13:47:58;14.60;99.90
15257;DHT22;7731;50.720;6.912;2022-11-15T13:50:37;14.60;99.90
15257;DHT22;7731;50.720;6.912;2022-11-15T13:53:09;14.70;99.90
15257;DHT22;7731;50.720;6.912;2022-11-15T13:55:41;14.70;99.90
15257;DHT22;7731;50.720;6.912;2022-11-15T13:58:11;14.60;99.90
15257;DHT22;7731;50.720;6.912;2022-11-15T14:00:47;14.70;99.90
15257;DHT22;7731;50.720;6.912;2022-11-15T14:03:25;14.70;99.90
15257;DHT22;7731;50.720;6.912;2022-11-15T14:06:09;14.80;99.90
15257;DHT22;7731;50.720;6.912;2022-11-15T14:08:57;14.60;99.90
15257;DHT22;7731;50.720;6.912;2022-11-15T14:11:30;14.70;99.90
15257;DHT22;7731;50.720;6.912;2022-11-15T14:14:14;14.70;99.90
15257;DHT22;7731;50.720;6.912;2022-11-15T14:16:46;14.50;99.90
15257;DHT22;7731;50.720;6.912;2022-11-15T14:19:35;14.40;99.90
15257;DHT22;7731;50.720;6.912;2022-11-15T14:22:17;14.20;99.90
15257;DHT22;7731;50.720;6.912;2022-11-15T14:28:15;14.10;99.90
15257;DHT22;7731;50.720;6.912;2022-11-15T14:31:00;14.10;99.90
15257;DHT22;7731;50.720;6.912;2022-11-15T14:33:32;14.00;99.90
15257;DHT22;7731;50.720;6.912;2022-11-15T14:36:04;14.00;99.90
15257;DHT22;7731;50.720;6.912;2022-11-15T14:38:39;13.90;99.90
15257;DHT22;7731;50.720;6.912;2022-11-15T14:41:20;13.90;99.90
15257;DHT22;7731;50.720;6.912;2022-11-15T14:43:53;14.00;99.90
15257;DHT22;7731;50.720;6.912;2022-11-15T14:46:23;14.00;99.90
15257;DHT22;7731;50.720;6.912;2022-11-15T14:48:56;14.00;99.90
15257;DHT22;7731;50.720;6.912;2022-11-15T14:51:30;13.90;99.90
15257;DHT22;7731;50.720;6.912;2022-11-15T14:54:03;13.90;99.90
15257;DHT22;7731;50.720;6.912;2022-11-15T14:56:33;13.80;99.90
15257;DHT22;7731;50.720;6.912;2022-11-15T14:59:09;13.80;99.90
15257;DHT22;7731;50.720;6.912;2022-11-15T15:01:39;13.80;99.90
15257;DHT22;7731;50.720;6.912;2022-11-15T15:04:10;13.70;99.90
15257;DHT22;7731;50.720;6.912;2022-11-15T15:06:43;13.70;99.90
15257;DHT22;7731;50.720;6.912;2022-11-15T15:09:19;13.70;99.90
15257;DHT22;7731;50.720;6.912;2022-11-15T15:11:49;13.70;99.90
15257;DHT22;7731;50.720;6.912;2022-11-15T15:14:21;13.70;99.90
15257;DHT22;7731;50.720;6.912;2022-11-15T15:16:51;13.60;99.90
15257;DHT22;7731;50.720;6.912;2022-11-15T15:19:21;13.60;99.90
15257;DHT22;7731;50.720;6.912;2022-11-15T15:21:52;13.60;99.90
15257;DHT22;7731;50.720;6.912;2022-11-15T15:24:33;13.50;99.90
15257;DHT22;7731;50.720;6.912;2022-11-15T15:27:03;13.50;99.90
15257;DHT22;7731;50.720;6.912;2022-11-15T15:29:33;13.50;99.90
15257;DHT22;7731;50.720;6.912;2022-11-15T15:32:08;13.50;99.90
15257;DHT22;7731;50.720;6.912;2022-11-15T15:34:40;13.50;99.90
15257;DHT22;7731;50.720;6.912;2022-11-15T15:37:23;13.40;99.90
15257;DHT22;7731;50.720;6.912;2022-11-15T15:39:57;13.50;99.90
15257;DHT22;7731;50.720;6.912;2022-11-15T15:42:27;13.40;99.90
15257;DHT22;7731;50.720;6.912;2022-11-15T15:44:58;13.30;99.90
15257;DHT22;7731;50.720;6.912;2022-11-15T15:47:31;13.40;99.90
15257;DHT22;7731;50.720;6.912;2022-11-15T15:50:01;13.30;99.90
15257;DHT22;7731;50.720;6.912;2022-11-15T15:52:36;13.30;99.90
15257;DHT22;7731;50.720;6.912;2022-11-15T15:55:09;13.30;99.90
15257;DHT22;7731;50.720;6.912;2022-11-15T15:57:39;13.30;99.90
15257;DHT22;7731;50.720;6.912;2022-11-15T16:00:10;13.20;99.90
15257;DHT22;7731;50.720;6.912;2022-11-15T16:02:41;13.30;99.90
15257;DHT22;7731;50.720;6.912;2022-11-15T16:05:14;13.30;99.90
15257;DHT22;7731;50.720;6.912;2022-11-15T16:07:45;13.20;99.90
15257;DHT22;7731;50.720;6.912;2022-11-15T16:10:21;13.20;99.90
15257;DHT22;7731;50.720;6.912;2022-11-15T16:12:57;13.20;99.90
15257;DHT22;7731;50.720;6.912;2022-11-15T16:15:30;13.20;99.90
15257;DHT22;7731;50.720;6.912;2022-11-15T16:18:01;13.20;99.90
15257;DHT22;7731;50.720;6.912;2022-11-15T16:20:35;13.10;99.90
15257;DHT22;7731;50.720;6.912;2022-11-15T16:23:12;13.10;99.90
15257;DHT22;7731;50.720;6.912;2022-11-15T16:25:48;13.20;99.90
15257;DHT22;7731;50.720;6.912;2022-11-15T16:28:22;13.20;99.90
15257;DHT22;7731;50.720;6.912;2022-11-15T16:31:00;13.20;99.90
15257;DHT22;7731;50.720;6.912;2022-11-15T16:33:38;13.10;99.90
15257;DHT22;7731;50.720;6.912;2022-11-15T16:36:18;13.10;99.90
15257;DHT22;7731;50.720;6.912;2022-11-15T16:39:00;13.10;99.90
15257;DHT22;7731;50.720;6.912;2022-11-15T16:41:33;13.10;99.90
15257;DHT22;7731;50.720;6.912;2022-11-15T16:44:03;13.10;99.90
15257;DHT22;7731;50.720;6.912;2022-11-15T16:46:34;13.10;99.90
15257;DHT22;7731;50.720;6.912;2022-11-15T16:49:12;13.10;99.90
15257;DHT22;7731;50.720;6.912;2022-11-15T16:51:44;13.10;99.90
15257;DHT22;7731;50.720;6.912;2022-11-15T16:54:16;13.10;99.90
15257;DHT22;7731;50.720;6.912;2022-11-15T16:56:49;13.10;99.90
15257;DHT22;7731;50.720;6.912;2022-11-15T16:59:19;13.00;99.90
15257;DHT22;7731;50.720;6.912;2022-11-15T17:01:49;13.00;99.90
15257;DHT22;7731;50.720;6.912;2022-11-15T17:04:19;13.00;99.90